Aérodrome :
LOGIN :

S'inscrire | Disclaimer

   EN    FR    IT 

 










Légende :    VFR   VFR Marginal   IFR   IFR Intensif   IFR Très Intensif
Visi : 
Plafond : 
>= 8 km
>= 3000ft
5 à 8 km
1000 à 3000 ft
1500m à 5 km
500 à 1000 ft
800 à 1500m
200 à 500 ft
< 800m
< 200 ft
Symboles :   Orages  Brouillard  Fortes neiges  Fortes précipitations  Vent > 20 kt
SIGMETs :   Divers  Orages  Givrage  Turbulence  Onde Orograph.  Cendres Volcan.






- Altitude de l'aérodrome : 446 ft
- Code IATA : VNE


LFRV - Vannes-Meucon

DERNIER METAR :
  • 150530Z AUTO VRB03KT 9999 BKN045 OVC052 06/04 Q1002

METARs EXPIRÉS :
  • 150500Z AUTO 24005KT 210V270 9999 FEW035 BKN043 OVC049 07/04 Q1002
  • 150430Z AUTO 27008KT 220V290 9999 FEW031/// BKN042/// BKN049/// ///TCU 08/04 Q1001
  • 150400Z AUTO 26007KT 230V290 9999 SCT038/// BKN045/// ///TCU 08/05 Q1001
  • 150330Z AUTO 23007KT 200V280 9999 FEW032 BKN039 BKN047 08/05 Q1001
  • 150300Z AUTO 23006KT 190V270 9999 SCT033 BKN045 08/06 Q1000

TAF N/A



MET'MAP, la Météo Aéronautique d'un coup d'oeil ! - Copyright ORBIFLY Décembre 2007 - Disclaimer

ORBIFLY MET'MAP TEAM :

Programmation & Développement : Alexandra Zaïnal
Sur une idée originale de : Baudouin d'Aumeries
Assistance à la programmation : Marc-Olivier Méhu
Soutien technique & logistique : Manuel Goepfert

Contact : metmap@orbifly.com




SOURCES & CREDITS :

   NOAA